sensor_id;sensor_type;location;lat;lon;timestamp;pressure;altitude;pressure_sealevel;temperature;humidity
54562;BME280;69047;53.358;-1.486;2024-03-22T00:01:58;100638.47;;;12.24;73.69
54562;BME280;69047;53.358;-1.486;2024-03-22T00:04:25;100629.75;;;12.21;74.33
54562;BME280;69047;53.358;-1.486;2024-03-22T00:06:50;100640.66;;;12.27;73.74
54562;BME280;69047;53.358;-1.486;2024-03-22T00:09:16;100642.44;;;12.06;75.16
54562;BME280;69047;53.358;-1.486;2024-03-22T00:11:43;100638.94;;;12.10;75.19
54562;BME280;69047;53.358;-1.486;2024-03-22T00:14:13;100637.22;;;11.99;75.02
54562;BME280;69047;53.358;-1.486;2024-03-22T00:16:39;100642.75;;;12.09;75.32
54562;BME280;69047;53.358;-1.486;2024-03-22T00:19:04;100637.34;;;12.14;74.91
54562;BME280;69047;53.358;-1.486;2024-03-22T00:21:31;100642.47;;;12.11;75.03
54562;BME280;69047;53.358;-1.486;2024-03-22T00:23:57;100638.59;;;12.02;75.81
54562;BME280;69047;53.358;-1.486;2024-03-22T00:26:23;100635.16;;;12.11;75.75
54562;BME280;69047;53.358;-1.486;2024-03-22T00:28:48;100628.94;;;11.79;77.57
54562;BME280;69047;53.358;-1.486;2024-03-22T00:31:14;100642.28;;;11.59;77.66
54562;BME280;69047;53.358;-1.486;2024-03-22T00:33:39;100633.53;;;11.79;78.01
54562;BME280;69047;53.358;-1.486;2024-03-22T00:36:05;100628.09;;;11.74;78.75
54562;BME280;69047;53.358;-1.486;2024-03-22T00:38:31;100629.41;;;11.71;78.04
54562;BME280;69047;53.358;-1.486;2024-03-22T00:40:56;100629.69;;;11.70;77.95
54562;BME280;69047;53.358;-1.486;2024-03-22T00:43:22;100621.13;;;11.88;77.67
54562;BME280;69047;53.358;-1.486;2024-03-22T00:45:49;100622.69;;;11.79;77.84
54562;BME280;69047;53.358;-1.486;2024-03-22T00:48:16;100624.19;;;11.64;78.19
54562;BME280;69047;53.358;-1.486;2024-03-22T00:50:41;100617.84;;;11.86;77.58
54562;BME280;69047;53.358;-1.486;2024-03-22T00:53:06;100610.28;;;11.88;77.52
54562;BME280;69047;53.358;-1.486;2024-03-22T00:55:33;100608.38;;;11.88;77.75
54562;BME280;69047;53.358;-1.486;2024-03-22T00:57:58;100610.34;;;11.98;77.32
54562;BME280;69047;53.358;-1.486;2024-03-22T01:00:24;100614.59;;;11.84;77.47
54562;BME280;69047;53.358;-1.486;2024-03-22T01:02:50;100618.75;;;11.96;77.58
54562;BME280;69047;53.358;-1.486;2024-03-22T01:05:16;100626.88;;;11.91;77.38
54562;BME280;69047;53.358;-1.486;2024-03-22T01:07:42;100619.56;;;11.97;77.14
54562;BME280;69047;53.358;-1.486;2024-03-22T01:10:07;100619.28;;;11.93;77.23
54562;BME280;69047;53.358;-1.486;2024-03-22T01:12:33;100610.50;;;11.81;78.29
54562;BME280;69047;53.358;-1.486;2024-03-22T01:14:58;100621.19;;;11.66;78.95
54562;BME280;69047;53.358;-1.486;2024-03-22T01:17:28;100608.53;;;11.72;78.25
54562;BME280;69047;53.358;-1.486;2024-03-22T01:19:55;100617.59;;;11.87;78.41
54562;BME280;69047;53.358;-1.486;2024-03-22T01:22:20;100617.84;;;11.86;78.15
54562;BME280;69047;53.358;-1.486;2024-03-22T01:24:45;100613.00;;;11.88;78.20
54562;BME280;69047;53.358;-1.486;2024-03-22T01:27:11;100613.25;;;11.86;78.46
54562;BME280;69047;53.358;-1.486;2024-03-22T01:29:39;100613.22;;;11.81;78.75
54562;BME280;69047;53.358;-1.486;2024-03-22T01:32:05;100616.66;;;11.72;78.60
54562;BME280;69047;53.358;-1.486;2024-03-22T01:34:33;100626.44;;;11.73;78.77
54562;BME280;69047;53.358;-1.486;2024-03-22T01:37:02;100622.50;;;11.90;78.48
54562;BME280;69047;53.358;-1.486;2024-03-22T01:39:28;100627.66;;;11.92;78.13
54562;BME280;69047;53.358;-1.486;2024-03-22T01:41:53;100621.25;;;11.71;78.68
54562;BME280;69047;53.358;-1.486;2024-03-22T01:44:19;100626.09;;;11.69;79.07
54562;BME280;69047;53.358;-1.486;2024-03-22T01:46:48;100621.94;;;11.30;79.38
54562;BME280;69047;53.358;-1.486;2024-03-22T01:49:15;100631.97;;;11.29;78.55
54562;BME280;69047;53.358;-1.486;2024-03-22T01:51:42;100626.41;;;11.41;78.83
54562;BME280;69047;53.358;-1.486;2024-03-22T01:54:20;100623.41;;;11.37;78.76
54562;BME280;69047;53.358;-1.486;2024-03-22T01:56:50;100621.56;;;11.48;78.37
54562;BME280;69047;53.358;-1.486;2024-03-22T01:59:16;100626.19;;;11.47;77.80
54562;BME280;69047;53.358;-1.486;2024-03-22T02:01:42;100626.31;;;11.31;77.06
54562;BME280;69047;53.358;-1.486;2024-03-22T02:04:07;100627.13;;;11.31;76.51
54562;BME280;69047;53.358;-1.486;2024-03-22T02:06:32;100619.66;;;11.17;76.66
54562;BME280;69047;53.358;-1.486;2024-03-22T02:08:58;100622.56;;;11.10;76.37
54562;BME280;69047;53.358;-1.486;2024-03-22T02:11:27;100622.56;;;11.10;76.44
54562;BME280;69047;53.358;-1.486;2024-03-22T02:13:53;100624.47;;;11.09;76.04
54562;BME280;69047;53.358;-1.486;2024-03-22T02:16:19;100630.16;;;10.86;76.66
54562;BME280;69047;53.358;-1.486;2024-03-22T02:18:44;100625.00;;;11.11;76.19
54562;BME280;69047;53.358;-1.486;2024-03-22T02:21:10;100621.03;;;11.19;75.88
54562;BME280;69047;53.358;-1.486;2024-03-22T02:23:37;100625.75;;;11.29;76.03
54562;BME280;69047;53.358;-1.486;2024-03-22T02:26:03;100624.34;;;11.26;75.83
54562;BME280;69047;53.358;-1.486;2024-03-22T02:28:29;100619.81;;;11.32;75.63
54562;BME280;69047;53.358;-1.486;2024-03-22T02:30:56;100621.91;;;10.98;75.59
54562;BME280;69047;53.358;-1.486;2024-03-22T02:33:21;100615.94;;;10.74;75.87
54562;BME280;69047;53.358;-1.486;2024-03-22T02:35:47;100618.72;;;11.06;75.81
54562;BME280;69047;53.358;-1.486;2024-03-22T02:38:13;100627.47;;;10.65;75.32
54562;BME280;69047;53.358;-1.486;2024-03-22T02:40:38;100621.34;;;10.74;74.58
54562;BME280;69047;53.358;-1.486;2024-03-22T02:43:04;100609.84;;;10.62;75.10
54562;BME280;69047;53.358;-1.486;2024-03-22T02:45:34;100606.94;;;10.69;74.89
54562;BME280;69047;53.358;-1.486;2024-03-22T02:47:59;100616.38;;;10.66;74.65
54562;BME280;69047;53.358;-1.486;2024-03-22T02:50:25;100612.59;;;10.89;73.32
54562;BME280;69047;53.358;-1.486;2024-03-22T02:52:50;100611.75;;;10.88;74.06
54562;BME280;69047;53.358;-1.486;2024-03-22T02:55:16;100604.00;;;10.75;74.49
54562;BME280;69047;53.358;-1.486;2024-03-22T02:57:42;100593.81;;;10.82;72.78
54562;BME280;69047;53.358;-1.486;2024-03-22T03:00:08;100599.22;;;10.82;72.07
54562;BME280;69047;53.358;-1.486;2024-03-22T03:02:33;100599.00;;;10.84;71.41
54562;BME280;69047;53.358;-1.486;2024-03-22T03:04:59;100592.56;;;10.46;70.37
54562;BME280;69047;53.358;-1.486;2024-03-22T03:07:25;100594.78;;;10.49;69.77
54562;BME280;69047;53.358;-1.486;2024-03-22T03:09:50;100593.22;;;10.53;69.65
54562;BME280;69047;53.358;-1.486;2024-03-22T03:12:16;100608.13;;;10.56;69.23
54562;BME280;69047;53.358;-1.486;2024-03-22T03:14:41;100603.84;;;10.60;69.02
54562;BME280;69047;53.358;-1.486;2024-03-22T03:17:07;100596.72;;;10.32;68.93
54562;BME280;69047;53.358;-1.486;2024-03-22T03:19:33;100592.06;;;10.49;69.05
54562;BME280;69047;53.358;-1.486;2024-03-22T03:21:58;100586.84;;;10.43;71.11
54562;BME280;69047;53.358;-1.486;2024-03-22T03:24:24;100589.31;;;10.06;70.63
54562;BME280;69047;53.358;-1.486;2024-03-22T03:26:49;100578.91;;;10.36;70.74
54562;BME280;69047;53.358;-1.486;2024-03-22T03:29:14;100583.13;;;10.27;69.41
54562;BME280;69047;53.358;-1.486;2024-03-22T03:31:40;100562.28;;;10.28;69.00
54562;BME280;69047;53.358;-1.486;2024-03-22T03:34:06;100576.50;;;10.01;69.79
54562;BME280;69047;53.358;-1.486;2024-03-22T03:36:31;100564.81;;;10.34;69.83
54562;BME280;69047;53.358;-1.486;2024-03-22T03:38:57;100563.09;;;10.28;70.34
54562;BME280;69047;53.358;-1.486;2024-03-22T03:41:22;100577.56;;;10.17;70.59
54562;BME280;69047;53.358;-1.486;2024-03-22T03:43:48;100567.91;;;10.21;70.00
54562;BME280;69047;53.358;-1.486;2024-03-22T03:46:13;100567.06;;;10.04;70.44
54562;BME280;69047;53.358;-1.486;2024-03-22T03:48:38;100577.78;;;9.94;70.05
54562;BME280;69047;53.358;-1.486;2024-03-22T03:51:05;100561.03;;;9.97;70.73
54562;BME280;69047;53.358;-1.486;2024-03-22T03:53:30;100557.84;;;10.00;70.53
54562;BME280;69047;53.358;-1.486;2024-03-22T03:55:56;100550.19;;;10.14;70.76
54562;BME280;69047;53.358;-1.486;2024-03-22T03:58:21;100562.00;;;10.24;69.94
54562;BME280;69047;53.358;-1.486;2024-03-22T04:00:47;100567.44;;;9.91;70.61
54562;BME280;69047;53.358;-1.486;2024-03-22T04:03:12;100546.94;;;9.95;70.42
54562;BME280;69047;53.358;-1.486;2024-03-22T04:05:38;100558.91;;;9.99;69.76
54562;BME280;69047;53.358;-1.486;2024-03-22T04:08:03;100562.03;;;9.91;69.81
54562;BME280;69047;53.358;-1.486;2024-03-22T04:10:29;100569.28;;;10.07;70.16
54562;BME280;69047;53.358;-1.486;2024-03-22T04:12:54;100568.94;;;10.03;69.90
54562;BME280;69047;53.358;-1.486;2024-03-22T04:15:22;100562.50;;;10.21;69.98
54562;BME280;69047;53.358;-1.486;2024-03-22T04:17:48;100561.84;;;10.14;69.12
54562;BME280;69047;53.358;-1.486;2024-03-22T04:20:13;100563.63;;;10.09;69.18
54562;BME280;69047;53.358;-1.486;2024-03-22T04:22:39;100555.81;;;9.90;69.60
54562;BME280;69047;53.358;-1.486;2024-03-22T04:25:04;100555.03;;;9.95;69.63
54562;BME280;69047;53.358;-1.486;2024-03-22T04:27:30;100564.03;;;10.00;68.10
54562;BME280;69047;53.358;-1.486;2024-03-22T04:29:55;100556.13;;;9.94;68.79
54562;BME280;69047;53.358;-1.486;2024-03-22T04:32:21;100552.03;;;9.91;68.89
54562;BME280;69047;53.358;-1.486;2024-03-22T04:34:46;100551.44;;;10.06;67.91
54562;BME280;69047;53.358;-1.486;2024-03-22T04:37:11;100569.66;;;9.94;67.95
54562;BME280;69047;53.358;-1.486;2024-03-22T04:39:38;100551.84;;;9.98;67.68
54562;BME280;69047;53.358;-1.486;2024-03-22T04:42:04;100554.75;;;9.75;68.32
54562;BME280;69047;53.358;-1.486;2024-03-22T04:44:29;100555.03;;;9.95;68.32
54562;BME280;69047;53.358;-1.486;2024-03-22T04:46:54;100555.81;;;9.90;67.90
54562;BME280;69047;53.358;-1.486;2024-03-22T04:49:20;100570.22;;;9.96;67.48
54562;BME280;69047;53.358;-1.486;2024-03-22T04:51:46;100567.78;;;9.94;67.80
54562;BME280;69047;53.358;-1.486;2024-03-22T04:54:11;100559.44;;;10.01;67.99
54562;BME280;69047;53.358;-1.486;2024-03-22T04:56:37;100560.94;;;9.92;67.95
54562;BME280;69047;53.358;-1.486;2024-03-22T04:59:02;100565.91;;;9.78;67.88
54562;BME280;69047;53.358;-1.486;2024-03-22T05:01:27;100573.97;;;9.95;67.66
54562;BME280;69047;53.358;-1.486;2024-03-22T05:03:53;100571.75;;;9.92;67.18
54562;BME280;69047;53.358;-1.486;2024-03-22T05:06:20;100556.84;;;9.89;66.53
54562;BME280;69047;53.358;-1.486;2024-03-22T05:08:45;100567.22;;;9.76;66.83
54562;BME280;69047;53.358;-1.486;2024-03-22T05:11:10;100558.38;;;9.64;66.58
54562;BME280;69047;53.358;-1.486;2024-03-22T05:13:36;100569.75;;;9.82;66.88
54562;BME280;69047;53.358;-1.486;2024-03-22T05:16:01;100565.63;;;9.80;66.66
54562;BME280;69047;53.358;-1.486;2024-03-22T05:18:27;100571.53;;;9.77;66.75
54562;BME280;69047;53.358;-1.486;2024-03-22T05:20:52;100564.13;;;9.67;67.46
54562;BME280;69047;53.358;-1.486;2024-03-22T05:23:17;100564.84;;;9.79;66.68
54562;BME280;69047;53.358;-1.486;2024-03-22T05:25:43;100569.59;;;9.72;67.23
54562;BME280;69047;53.358;-1.486;2024-03-22T05:28:08;100568.94;;;9.82;67.03
54562;BME280;69047;53.358;-1.486;2024-03-22T05:30:34;100562.69;;;9.81;67.37
54562;BME280;69047;53.358;-1.486;2024-03-22T05:32:59;100572.03;;;9.74;66.68
54562;BME280;69047;53.358;-1.486;2024-03-22T05:35:25;100572.19;;;9.84;66.59
54562;BME280;69047;53.358;-1.486;2024-03-22T05:37:50;100564.25;;;9.94;66.16
54562;BME280;69047;53.358;-1.486;2024-03-22T05:40:16;100557.53;;;9.80;66.76
54562;BME280;69047;53.358;-1.486;2024-03-22T05:42:42;100564.97;;;9.89;66.51
54562;BME280;69047;53.358;-1.486;2024-03-22T05:45:17;100564.13;;;10.06;66.03
54562;BME280;69047;53.358;-1.486;2024-03-22T05:47:44;100566.44;;;9.97;66.44
54562;BME280;69047;53.358;-1.486;2024-03-22T05:50:10;100578.25;;;9.91;65.96
54562;BME280;69047;53.358;-1.486;2024-03-22T05:52:35;100564.19;;;9.72;67.36
54562;BME280;69047;53.358;-1.486;2024-03-22T05:55:01;100571.41;;;9.67;67.53
54562;BME280;69047;53.358;-1.486;2024-03-22T05:57:26;100572.75;;;9.86;67.43
54562;BME280;69047;53.358;-1.486;2024-03-22T05:59:52;100581.91;;;10.01;67.65
54562;BME280;69047;53.358;-1.486;2024-03-22T06:02:18;100575.13;;;9.99;66.76
54562;BME280;69047;53.358;-1.486;2024-03-22T06:04:43;100586.72;;;9.78;67.82
54562;BME280;69047;53.358;-1.486;2024-03-22T06:07:09;100586.31;;;9.69;68.90
54562;BME280;69047;53.358;-1.486;2024-03-22T06:09:35;100594.25;;;9.76;67.93
54562;BME280;69047;53.358;-1.486;2024-03-22T06:12:10;100583.28;;;9.82;66.91
54562;BME280;69047;53.358;-1.486;2024-03-22T06:14:36;100587.19;;;9.91;66.73
54562;BME280;69047;53.358;-1.486;2024-03-22T06:17:03;100586.28;;;9.86;66.92
54562;BME280;69047;53.358;-1.486;2024-03-22T06:19:29;100590.41;;;9.55;66.19
54562;BME280;69047;53.358;-1.486;2024-03-22T06:21:54;100594.50;;;9.58;66.04
54562;BME280;69047;53.358;-1.486;2024-03-22T06:24:19;100600.63;;;9.36;66.54
54562;BME280;69047;53.358;-1.486;2024-03-22T06:26:45;100596.66;;;9.56;65.39
54562;BME280;69047;53.358;-1.486;2024-03-22T06:29:10;100589.59;;;9.55;65.42
54562;BME280;69047;53.358;-1.486;2024-03-22T06:31:36;100596.53;;;9.51;65.15
54562;BME280;69047;53.358;-1.486;2024-03-22T06:34:01;100593.94;;;9.56;64.85
54562;BME280;69047;53.358;-1.486;2024-03-22T06:36:31;100598.75;;;9.54;65.29
54562;BME280;69047;53.358;-1.486;2024-03-22T06:38:57;100594.09;;;9.49;65.10
54562;BME280;69047;53.358;-1.486;2024-03-22T06:41:24;100606.03;;;9.36;65.71
54562;BME280;69047;53.358;-1.486;2024-03-22T06:43:51;100613.97;;;9.26;65.84
54562;BME280;69047;53.358;-1.486;2024-03-22T06:46:16;100608.25;;;9.39;65.40
54562;BME280;69047;53.358;-1.486;2024-03-22T06:48:42;100611.44;;;9.36;66.72
54562;BME280;69047;53.358;-1.486;2024-03-22T06:51:07;100623.56;;;9.51;65.75
54562;BME280;69047;53.358;-1.486;2024-03-22T06:53:33;100617.34;;;9.33;65.86
54562;BME280;69047;53.358;-1.486;2024-03-22T06:55:58;100617.25;;;9.28;65.72
54562;BME280;69047;53.358;-1.486;2024-03-22T06:58:23;100614.56;;;9.45;65.52
54562;BME280;69047;53.358;-1.486;2024-03-22T07:00:50;100616.69;;;9.60;65.47
54562;BME280;69047;53.358;-1.486;2024-03-22T07:03:15;100614.72;;;9.72;64.59
54562;BME280;69047;53.358;-1.486;2024-03-22T07:05:41;100617.25;;;9.62;64.58
54562;BME280;69047;53.358;-1.486;2024-03-22T07:08:07;100627.09;;;9.51;64.23
54562;BME280;69047;53.358;-1.486;2024-03-22T07:10:32;100628.56;;;9.42;64.39
54562;BME280;69047;53.358;-1.486;2024-03-22T07:12:58;100625.44;;;9.33;65.04
54562;BME280;69047;53.358;-1.486;2024-03-22T07:15:26;100633.75;;;9.43;64.64
54562;BME280;69047;53.358;-1.486;2024-03-22T07:17:55;100633.78;;;9.32;64.50
54562;BME280;69047;53.358;-1.486;2024-03-22T07:20:21;100634.47;;;9.39;64.04
54562;BME280;69047;53.358;-1.486;2024-03-22T07:22:46;100637.16;;;9.39;64.85
54562;BME280;69047;53.358;-1.486;2024-03-22T07:25:12;100643.09;;;9.53;63.38
54562;BME280;69047;53.358;-1.486;2024-03-22T07:27:37;100636.75;;;9.30;63.16
54562;BME280;69047;53.358;-1.486;2024-03-22T07:30:03;100642.59;;;9.11;64.26
54562;BME280;69047;53.358;-1.486;2024-03-22T07:32:32;100647.94;;;9.22;63.61
54562;BME280;69047;53.358;-1.486;2024-03-22T07:34:58;100651.84;;;9.43;63.07
54562;BME280;69047;53.358;-1.486;2024-03-22T07:37:23;100649.81;;;9.67;63.39
54562;BME280;69047;53.358;-1.486;2024-03-22T07:39:48;100661.41;;;9.51;62.54
54562;BME280;69047;53.358;-1.486;2024-03-22T07:42:14;100648.16;;;9.66;62.43
54562;BME280;69047;53.358;-1.486;2024-03-22T07:44:40;100656.94;;;9.89;62.26
54562;BME280;69047;53.358;-1.486;2024-03-22T07:47:05;100663.00;;;9.80;62.31
54562;BME280;69047;53.358;-1.486;2024-03-22T07:49:31;100664.06;;;9.79;61.70
54562;BME280;69047;53.358;-1.486;2024-03-22T07:52:02;100660.09;;;9.36;61.63
54562;BME280;69047;53.358;-1.486;2024-03-22T07:54:33;100668.59;;;9.73;62.15
54562;BME280;69047;53.358;-1.486;2024-03-22T07:56:59;100669.56;;;9.67;62.11
54562;BME280;69047;53.358;-1.486;2024-03-22T07:59:25;100665.03;;;9.56;61.88
54562;BME280;69047;53.358;-1.486;2024-03-22T08:01:50;100663.47;;;9.77;61.42
54562;BME280;69047;53.358;-1.486;2024-03-22T08:04:16;100662.19;;;9.79;60.93
54562;BME280;69047;53.358;-1.486;2024-03-22T08:06:41;100661.53;;;9.72;61.67
54562;BME280;69047;53.358;-1.486;2024-03-22T08:09:07;100663.31;;;9.83;60.96
54562;BME280;69047;53.358;-1.486;2024-03-22T08:11:33;100667.72;;;9.39;61.52
54562;BME280;69047;53.358;-1.486;2024-03-22T08:13:58;100663.13;;;9.40;62.01
54562;BME280;69047;53.358;-1.486;2024-03-22T08:16:29;100658.22;;;9.37;61.45
54562;BME280;69047;53.358;-1.486;2024-03-22T08:18:55;100656.41;;;9.59;61.28
54562;BME280;69047;53.358;-1.486;2024-03-22T08:21:22;100662.91;;;9.58;60.23
54562;BME280;69047;53.358;-1.486;2024-03-22T08:23:47;100659.88;;;9.26;60.90
54562;BME280;69047;53.358;-1.486;2024-03-22T08:26:12;100655.09;;;9.45;60.82
54562;BME280;69047;53.358;-1.486;2024-03-22T08:28:38;100646.44;;;9.60;60.83
54562;BME280;69047;53.358;-1.486;2024-03-22T08:31:04;100650.66;;;9.39;60.25
54562;BME280;69047;53.358;-1.486;2024-03-22T08:33:30;100654.69;;;9.53;60.42
54562;BME280;69047;53.358;-1.486;2024-03-22T08:35:56;100652.47;;;9.33;60.32
54562;BME280;69047;53.358;-1.486;2024-03-22T08:38:21;100666.94;;;9.56;60.35
54562;BME280;69047;53.358;-1.486;2024-03-22T08:40:46;100658.78;;;9.39;60.57
54562;BME280;69047;53.358;-1.486;2024-03-22T08:43:12;100669.16;;;9.59;60.11
54562;BME280;69047;53.358;-1.486;2024-03-22T08:45:37;100658.22;;;9.54;60.16
54562;BME280;69047;53.358;-1.486;2024-03-22T08:48:03;100671.34;;;9.62;59.70
54562;BME280;69047;53.358;-1.486;2024-03-22T08:50:29;100672.63;;;9.42;60.78
54562;BME280;69047;53.358;-1.486;2024-03-22T08:52:58;100670.19;;;9.58;60.54
54562;BME280;69047;53.358;-1.486;2024-03-22T08:55:24;100658.81;;;9.72;60.30
54562;BME280;69047;53.358;-1.486;2024-03-22T08:57:49;100666.59;;;10.02;60.40
54562;BME280;69047;53.358;-1.486;2024-03-22T09:00:15;100660.03;;;9.98;58.97
54562;BME280;69047;53.358;-1.486;2024-03-22T09:02:40;100655.00;;;10.18;58.93
54562;BME280;69047;53.358;-1.486;2024-03-22T09:05:06;100659.25;;;10.14;58.64
54562;BME280;69047;53.358;-1.486;2024-03-22T09:07:33;100660.69;;;10.22;58.34
54562;BME280;69047;53.358;-1.486;2024-03-22T09:09:59;100659.81;;;10.33;58.67
54562;BME280;69047;53.358;-1.486;2024-03-22T09:12:24;100663.63;;;10.37;58.19
54562;BME280;69047;53.358;-1.486;2024-03-22T09:14:49;100669.25;;;10.14;59.48
54562;BME280;69047;53.358;-1.486;2024-03-22T09:17:15;100668.81;;;10.05;58.39
54562;BME280;69047;53.358;-1.486;2024-03-22T09:19:40;100676.88;;;10.00;58.42
54562;BME280;69047;53.358;-1.486;2024-03-22T09:22:06;100684.38;;;9.65;59.37
54562;BME280;69047;53.358;-1.486;2024-03-22T09:24:32;100671.22;;;9.85;59.07
54562;BME280;69047;53.358;-1.486;2024-03-22T09:26:58;100667.91;;;9.83;59.04
54562;BME280;69047;53.358;-1.486;2024-03-22T09:29:24;100677.13;;;10.15;59.38
54562;BME280;69047;53.358;-1.486;2024-03-22T09:31:49;100661.38;;;10.12;57.27
54562;BME280;69047;53.358;-1.486;2024-03-22T09:34:27;100678.56;;;9.89;58.05
54562;BME280;69047;53.358;-1.486;2024-03-22T09:36:55;100680.25;;;9.62;58.94
54562;BME280;69047;53.358;-1.486;2024-03-22T09:39:21;100661.44;;;9.84;58.18
54562;BME280;69047;53.358;-1.486;2024-03-22T09:41:47;100670.72;;;10.21;58.25
54562;BME280;69047;53.358;-1.486;2024-03-22T09:44:14;100669.66;;;10.06;57.20
54562;BME280;69047;53.358;-1.486;2024-03-22T09:46:43;100667.53;;;10.24;57.90
54562;BME280;69047;53.358;-1.486;2024-03-22T09:49:11;100672.94;;;10.24;57.06
54562;BME280;69047;53.358;-1.486;2024-03-22T09:51:38;100669.16;;;10.25;57.06
54562;BME280;69047;53.358;-1.486;2024-03-22T09:54:04;100663.59;;;10.15;56.58
54562;BME280;69047;53.358;-1.486;2024-03-22T09:56:30;100657.91;;;10.33;56.77
54562;BME280;69047;53.358;-1.486;2024-03-22T09:58:57;100664.34;;;10.49;56.21
54562;BME280;69047;53.358;-1.486;2024-03-22T10:01:24;100655.16;;;10.50;55.62
54562;BME280;69047;53.358;-1.486;2024-03-22T10:03:51;100657.75;;;10.62;55.57
54562;BME280;69047;53.358;-1.486;2024-03-22T10:06:17;100654.88;;;10.30;55.92
54562;BME280;69047;53.358;-1.486;2024-03-22T10:08:45;100657.75;;;10.62;56.42
54562;BME280;69047;53.358;-1.486;2024-03-22T10:11:11;100655.91;;;10.45;55.54
54562;BME280;69047;53.358;-1.486;2024-03-22T10:13:37;100649.94;;;10.65;56.02
54562;BME280;69047;53.358;-1.486;2024-03-22T10:16:03;100655.09;;;10.67;54.04
54562;BME280;69047;53.358;-1.486;2024-03-22T10:18:28;100642.66;;;10.66;54.24
54562;BME280;69047;53.358;-1.486;2024-03-22T10:21:01;100653.34;;;10.99;53.67
54562;BME280;69047;53.358;-1.486;2024-03-22T10:23:27;100646.09;;;10.83;52.74
54562;BME280;69047;53.358;-1.486;2024-03-22T10:25:53;100658.56;;;10.62;55.49
54562;BME280;69047;53.358;-1.486;2024-03-22T10:28:19;100647.47;;;10.64;54.26
54562;BME280;69047;53.358;-1.486;2024-03-22T10:30:44;100664.94;;;10.34;53.85
54562;BME280;69047;53.358;-1.486;2024-03-22T10:33:13;100652.31;;;10.07;50.42
54562;BME280;69047;53.358;-1.486;2024-03-22T10:35:39;100652.50;;;10.33;51.51
54562;BME280;69047;53.358;-1.486;2024-03-22T10:38:06;100653.59;;;10.76;51.66
54562;BME280;69047;53.358;-1.486;2024-03-22T10:40:34;100653.47;;;10.66;50.52
54562;BME280;69047;53.358;-1.486;2024-03-22T10:43:00;100657.75;;;10.83;49.80
54562;BME280;69047;53.358;-1.486;2024-03-22T10:45:30;100659.69;;;10.88;50.37
54562;BME280;69047;53.358;-1.486;2024-03-22T10:47:57;100657.00;;;10.88;49.29
54562;BME280;69047;53.358;-1.486;2024-03-22T10:50:23;100666.22;;;10.87;48.93
54562;BME280;69047;53.358;-1.486;2024-03-22T10:52:58;100649.69;;;11.10;48.16
54562;BME280;69047;53.358;-1.486;2024-03-22T10:55:32;100653.16;;;10.84;46.11
54562;BME280;69047;53.358;-1.486;2024-03-22T10:57:58;100638.66;;;10.95;46.99
54562;BME280;69047;53.358;-1.486;2024-03-22T11:00:34;100639.69;;;10.89;47.61
54562;BME280;69047;53.358;-1.486;2024-03-22T11:03:03;100656.28;;;11.19;46.98
54562;BME280;69047;53.358;-1.486;2024-03-22T11:05:29;100659.00;;;11.19;46.16
54562;BME280;69047;53.358;-1.486;2024-03-22T11:08:03;100644.59;;;11.45;45.94
54562;BME280;69047;53.358;-1.486;2024-03-22T11:10:35;100641.75;;;10.82;45.94
54562;BME280;69047;53.358;-1.486;2024-03-22T11:13:04;100633.22;;;11.17;45.50
54562;BME280;69047;53.358;-1.486;2024-03-22T11:15:32;100633.56;;;11.52;45.72
54562;BME280;69047;53.358;-1.486;2024-03-22T11:17:59;100634.06;;;11.49;45.21
54562;BME280;69047;53.358;-1.486;2024-03-22T11:20:25;100647.78;;;11.10;45.52
54562;BME280;69047;53.358;-1.486;2024-03-22T11:22:51;100635.97;;;11.48;46.54
54562;BME280;69047;53.358;-1.486;2024-03-22T11:25:17;100616.88;;;11.38;45.28
54562;BME280;69047;53.358;-1.486;2024-03-22T11:27:44;100628.13;;;11.52;46.36
54562;BME280;69047;53.358;-1.486;2024-03-22T11:30:09;100643.81;;;11.50;45.36
54562;BME280;69047;53.358;-1.486;2024-03-22T11:32:36;100628.34;;;11.45;45.96
54562;BME280;69047;53.358;-1.486;2024-03-22T11:35:12;100625.25;;;11.32;46.63
54562;BME280;69047;53.358;-1.486;2024-03-22T11:37:42;100624.47;;;10.88;46.12
54562;BME280;69047;53.358;-1.486;2024-03-22T11:40:11;100624.97;;;11.06;46.26
54562;BME280;69047;53.358;-1.486;2024-03-22T11:42:41;100622.25;;;11.06;46.35
54562;BME280;69047;53.358;-1.486;2024-03-22T11:45:09;100625.63;;;11.19;46.15
54562;BME280;69047;53.358;-1.486;2024-03-22T11:47:38;100616.88;;;11.11;45.37
54562;BME280;69047;53.358;-1.486;2024-03-22T11:50:04;100620.53;;;11.22;45.77
54562;BME280;69047;53.358;-1.486;2024-03-22T11:52:30;100606.91;;;11.44;45.63
54562;BME280;69047;53.358;-1.486;2024-03-22T11:54:56;100624.16;;;11.06;45.63
54562;BME280;69047;53.358;-1.486;2024-03-22T11:57:22;100621.19;;;11.34;44.54
54562;BME280;69047;53.358;-1.486;2024-03-22T11:59:48;100623.44;;;11.16;44.37
54562;BME280;69047;53.358;-1.486;2024-03-22T12:02:14;100619.19;;;11.25;44.88
54562;BME280;69047;53.358;-1.486;2024-03-22T12:04:49;100636.91;;;10.84;44.94
54562;BME280;69047;53.358;-1.486;2024-03-22T12:07:16;100618.38;;;10.97;45.19
54562;BME280;69047;53.358;-1.486;2024-03-22T12:09:42;100623.28;;;10.79;45.61
54562;BME280;69047;53.358;-1.486;2024-03-22T12:12:10;100618.06;;;10.94;45.57
54562;BME280;69047;53.358;-1.486;2024-03-22T12:14:40;100610.13;;;10.44;47.10
54562;BME280;69047;53.358;-1.486;2024-03-22T12:17:09;100606.31;;;10.62;46.70
54562;BME280;69047;53.358;-1.486;2024-03-22T12:19:34;100611.44;;;10.85;46.92
54562;BME280;69047;53.358;-1.486;2024-03-22T12:22:00;100610.19;;;10.49;47.03
54562;BME280;69047;53.358;-1.486;2024-03-22T12:24:26;100615.56;;;10.44;47.28
54562;BME280;69047;53.358;-1.486;2024-03-22T12:26:54;100614.53;;;10.28;47.99
54562;BME280;69047;53.358;-1.486;2024-03-22T12:29:20;100606.50;;;10.33;46.51
54562;BME280;69047;53.358;-1.486;2024-03-22T12:31:49;100610.78;;;10.51;46.35
54562;BME280;69047;53.358;-1.486;2024-03-22T12:34:29;100609.00;;;10.62;46.02
54562;BME280;69047;53.358;-1.486;2024-03-22T12:36:57;100615.75;;;10.81;43.33
54562;BME280;69047;53.358;-1.486;2024-03-22T12:39:24;100613.41;;;10.68;43.31